sensor_id;sensor_type;location;lat;lon;timestamp;P1;durP1;ratioP1;P2;durP2;ratioP2
17528;SDS011;8882;53.192;8.184;2022-08-18T04:31:45;17.20;;;6.57;;
17528;SDS011;8882;53.192;8.184;2022-08-18T04:34:11;15.83;;;7.87;;
17528;SDS011;8882;53.192;8.184;2022-08-18T04:36:38;12.17;;;7.47;;
17528;SDS011;8882;53.192;8.184;2022-08-18T04:39:06;19.43;;;8.70;;
17528;SDS011;8882;53.192;8.184;2022-08-18T04:41:34;18.57;;;8.63;;
17528;SDS011;8882;53.192;8.184;2022-08-18T04:44:01;14.80;;;7.87;;
17528;SDS011;8882;53.192;8.184;2022-08-18T04:46:28;13.17;;;8.10;;
17528;SDS011;8882;53.192;8.184;2022-08-18T04:48:58;17.80;;;7.73;;
17528;SDS011;8882;53.192;8.184;2022-08-18T04:51:25;22.43;;;8.00;;
17528;SDS011;8882;53.192;8.184;2022-08-18T04:53:53;13.57;;;7.50;;
17528;SDS011;8882;53.192;8.184;2022-08-18T04:56:21;13.93;;;7.03;;
17528;SDS011;8882;53.192;8.184;2022-08-18T04:58:54;12.03;;;6.73;;
17528;SDS011;8882;53.192;8.184;2022-08-18T05:01:26;13.03;;;6.70;;
17528;SDS011;8882;53.192;8.184;2022-08-18T05:03:55;11.87;;;6.97;;
17528;SDS011;8882;53.192;8.184;2022-08-18T05:06:23;11.03;;;6.53;;
17528;SDS011;8882;53.192;8.184;2022-08-18T05:08:50;13.73;;;6.03;;
17528;SDS011;8882;53.192;8.184;2022-08-18T05:11:18;10.37;;;6.40;;
17528;SDS011;8882;53.192;8.184;2022-08-18T05:13:45;11.83;;;6.47;;
17528;SDS011;8882;53.192;8.184;2022-08-18T05:16:12;11.13;;;6.70;;
17528;SDS011;8882;53.192;8.184;2022-08-18T05:18:37;16.07;;;7.97;;
17528;SDS011;8882;53.192;8.184;2022-08-18T05:21:04;12.87;;;7.37;;
17528;SDS011;8882;53.192;8.184;2022-08-18T05:23:38;12.93;;;7.87;;
17528;SDS011;8882;53.192;8.184;2022-08-18T05:26:05;14.63;;;7.50;;
17528;SDS011;8882;53.192;8.184;2022-08-18T05:28:32;17.20;;;7.50;;
17528;SDS011;8882;53.192;8.184;2022-08-18T05:31:05;23.67;;;8.67;;
17528;SDS011;8882;53.192;8.184;2022-08-18T05:33:36;18.20;;;7.43;;
17528;SDS011;8882;53.192;8.184;2022-08-18T05:36:04;15.00;;;8.20;;
17528;SDS011;8882;53.192;8.184;2022-08-18T05:41:27;19.53;;;9.70;;
17528;SDS011;8882;53.192;8.184;2022-08-18T05:43:57;19.83;;;9.47;;
17528;SDS011;8882;53.192;8.184;2022-08-18T05:46:29;20.27;;;9.90;;
17528;SDS011;8882;53.192;8.184;2022-08-18T05:49:10;17.50;;;8.57;;
17528;SDS011;8882;53.192;8.184;2022-08-18T05:51:40;20.43;;;9.97;;
17528;SDS011;8882;53.192;8.184;2022-08-18T05:54:09;18.87;;;9.20;;
17528;SDS011;8882;53.192;8.184;2022-08-18T05:56:55;17.47;;;10.47;;
17528;SDS011;8882;53.192;8.184;2022-08-18T05:59:26;22.60;;;9.43;;
17528;SDS011;8882;53.192;8.184;2022-08-18T06:02:24;22.00;;;10.10;;
17528;SDS011;8882;53.192;8.184;2022-08-18T06:04:59;21.77;;;9.93;;
17528;SDS011;8882;53.192;8.184;2022-08-18T06:07:40;22.93;;;9.80;;
17528;SDS011;8882;53.192;8.184;2022-08-18T06:10:09;26.70;;;10.80;;
17528;SDS011;8882;53.192;8.184;2022-08-18T06:12:37;20.73;;;10.83;;
17528;SDS011;8882;53.192;8.184;2022-08-18T06:15:13;24.90;;;10.00;;
17528;SDS011;8882;53.192;8.184;2022-08-18T06:17:49;22.47;;;10.40;;
17528;SDS011;8882;53.192;8.184;2022-08-18T06:20:51;23.23;;;10.47;;
17528;SDS011;8882;53.192;8.184;2022-08-18T06:26:20;28.80;;;10.67;;
17528;SDS011;8882;53.192;8.184;2022-08-18T06:29:13;27.87;;;11.23;;
17528;SDS011;8882;53.192;8.184;2022-08-18T06:32:04;20.40;;;10.27;;
17528;SDS011;8882;53.192;8.184;2022-08-18T06:34:49;23.87;;;10.40;;
17528;SDS011;8882;53.192;8.184;2022-08-18T06:39:57;22.27;;;10.00;;
17528;SDS011;8882;53.192;8.184;2022-08-18T06:42:23;26.27;;;10.97;;
17528;SDS011;8882;53.192;8.184;2022-08-18T06:44:56;28.13;;;11.37;;
17528;SDS011;8882;53.192;8.184;2022-08-18T06:52:55;23.90;;;11.60;;
17528;SDS011;8882;53.192;8.184;2022-08-18T06:57:59;27.40;;;10.37;;
17528;SDS011;8882;53.192;8.184;2022-08-18T07:00:28;24.70;;;10.37;;
17528;SDS011;8882;53.192;8.184;2022-08-18T07:05:37;22.37;;;10.20;;
17528;SDS011;8882;53.192;8.184;2022-08-18T07:08:49;21.37;;;10.13;;
17528;SDS011;8882;53.192;8.184;2022-08-18T07:11:26;24.57;;;11.23;;
17528;SDS011;8882;53.192;8.184;2022-08-18T07:13:53;25.17;;;10.90;;
17528;SDS011;8882;53.192;8.184;2022-08-18T07:16:22;21.23;;;10.40;;
17528;SDS011;8882;53.192;8.184;2022-08-18T07:18:51;19.17;;;10.00;;
17528;SDS011;8882;53.192;8.184;2022-08-18T07:21:27;13.50;;;9.50;;
17528;SDS011;8882;53.192;8.184;2022-08-18T07:24:00;19.47;;;8.13;;
17528;SDS011;8882;53.192;8.184;2022-08-18T07:26:30;16.60;;;9.20;;
17528;SDS011;8882;53.192;8.184;2022-08-18T07:29:36;18.43;;;9.17;;
17528;SDS011;8882;53.192;8.184;2022-08-18T07:32:16;14.63;;;8.63;;
17528;SDS011;8882;53.192;8.184;2022-08-18T07:34:45;16.23;;;8.50;;
17528;SDS011;8882;53.192;8.184;2022-08-18T07:37:17;17.70;;;9.23;;
17528;SDS011;8882;53.192;8.184;2022-08-18T07:39:52;15.03;;;9.00;;
17528;SDS011;8882;53.192;8.184;2022-08-18T07:45:29;14.07;;;7.63;;
17528;SDS011;8882;53.192;8.184;2022-08-18T07:48:15;17.07;;;8.77;;
17528;SDS011;8882;53.192;8.184;2022-08-18T07:50:47;13.93;;;7.93;;
17528;SDS011;8882;53.192;8.184;2022-08-18T07:56:02;12.40;;;7.73;;
17528;SDS011;8882;53.192;8.184;2022-08-18T07:58:36;13.60;;;7.63;;
17528;SDS011;8882;53.192;8.184;2022-08-18T08:01:20;12.50;;;7.47;;
17528;SDS011;8882;53.192;8.184;2022-08-18T08:04:02;9.83;;;7.40;;
17528;SDS011;8882;53.192;8.184;2022-08-18T08:06:45;15.50;;;7.30;;
17528;SDS011;8882;53.192;8.184;2022-08-18T08:09:36;13.53;;;6.87;;
17528;SDS011;8882;53.192;8.184;2022-08-18T08:14:46;13.07;;;6.77;;
17528;SDS011;8882;53.192;8.184;2022-08-18T08:19:58;12.33;;;6.30;;
17528;SDS011;8882;53.192;8.184;2022-08-18T08:23:00;10.10;;;6.33;;
17528;SDS011;8882;53.192;8.184;2022-08-18T08:28:47;10.10;;;5.83;;
17528;SDS011;8882;53.192;8.184;2022-08-18T08:31:28;9.90;;;5.87;;
17528;SDS011;8882;53.192;8.184;2022-08-18T08:34:13;9.85;;;5.75;;
17528;SDS011;8882;53.192;8.184;2022-08-18T08:36:48;14.50;;;5.67;;
17528;SDS011;8882;53.192;8.184;2022-08-18T08:42:00;10.35;;;5.78;;
17528;SDS011;8882;53.192;8.184;2022-08-18T08:44:57;9.35;;;5.30;;
17528;SDS011;8882;53.192;8.184;2022-08-18T08:47:33;11.73;;;5.63;;
17528;SDS011;8882;53.192;8.184;2022-08-18T08:50:09;8.13;;;5.47;;
17528;SDS011;8882;53.192;8.184;2022-08-18T08:55:18;11.60;;;4.70;;
17528;SDS011;8882;53.192;8.184;2022-08-18T08:57:51;6.97;;;4.88;;
17528;SDS011;8882;53.192;8.184;2022-08-18T09:00:25;5.78;;;4.60;;
17528;SDS011;8882;53.192;8.184;2022-08-18T09:08:17;11.13;;;4.40;;
17528;SDS011;8882;53.192;8.184;2022-08-18T09:16:43;4.18;;;3.25;;
17528;SDS011;8882;53.192;8.184;2022-08-18T09:19:23;7.88;;;3.42;;
17528;SDS011;8882;53.192;8.184;2022-08-18T09:24:48;5.93;;;4.28;;
17528;SDS011;8882;53.192;8.184;2022-08-18T09:27:24;6.88;;;3.78;;
17528;SDS011;8882;53.192;8.184;2022-08-18T09:30:04;4.50;;;2.95;;
17528;SDS011;8882;53.192;8.184;2022-08-18T09:38:07;4.65;;;3.25;;
17528;SDS011;8882;53.192;8.184;2022-08-18T09:41:04;3.88;;;2.80;;
17528;SDS011;8882;53.192;8.184;2022-08-18T09:44:02;6.25;;;3.45;;
17528;SDS011;8882;53.192;8.184;2022-08-18T09:51:55;4.20;;;3.28;;
17528;SDS011;8882;53.192;8.184;2022-08-18T09:54:24;8.52;;;3.30;;
17528;SDS011;8882;53.192;8.184;2022-08-18T10:02:09;5.95;;;2.90;;
17528;SDS011;8882;53.192;8.184;2022-08-18T10:05:21;5.07;;;2.53;;
17528;SDS011;8882;53.192;8.184;2022-08-18T10:07:52;2.95;;;2.28;;
17528;SDS011;8882;53.192;8.184;2022-08-18T10:21:59;3.85;;;2.88;;
17528;SDS011;8882;53.192;8.184;2022-08-18T10:24:29;2.83;;;2.40;;
17528;SDS011;8882;53.192;8.184;2022-08-18T10:26:57;2.25;;;2.03;;
17528;SDS011;8882;53.192;8.184;2022-08-18T10:36:53;6.97;;;2.90;;
17528;SDS011;8882;53.192;8.184;2022-08-18T10:39:46;8.05;;;2.50;;
17528;SDS011;8882;53.192;8.184;2022-08-18T10:42:28;3.22;;;2.90;;
17528;SDS011;8882;53.192;8.184;2022-08-18T10:45:09;4.88;;;2.70;;
17528;SDS011;8882;53.192;8.184;2022-08-18T10:47:36;5.93;;;2.92;;
17528;SDS011;8882;53.192;8.184;2022-08-18T10:50:04;5.65;;;2.60;;
17528;SDS011;8882;53.192;8.184;2022-08-18T10:57:57;6.32;;;3.10;;
17528;SDS011;8882;53.192;8.184;2022-08-18T11:00:38;6.13;;;2.92;;
17528;SDS011;8882;53.192;8.184;2022-08-18T11:03:22;7.53;;;2.92;;
17528;SDS011;8882;53.192;8.184;2022-08-18T11:06:07;4.63;;;2.85;;
17528;SDS011;8882;53.192;8.184;2022-08-18T11:08:41;6.88;;;2.80;;
17528;SDS011;8882;53.192;8.184;2022-08-18T11:11:10;7.85;;;3.15;;
17528;SDS011;8882;53.192;8.184;2022-08-18T11:19:24;5.07;;;3.63;;
17528;SDS011;8882;53.192;8.184;2022-08-18T11:21:51;6.55;;;3.28;;
17528;SDS011;8882;53.192;8.184;2022-08-18T11:24:24;26.58;;;17.33;;
17528;SDS011;8882;53.192;8.184;2022-08-18T11:29:30;10.90;;;6.47;;
17528;SDS011;8882;53.192;8.184;2022-08-18T11:37:26;5.68;;;3.35;;
17528;SDS011;8882;53.192;8.184;2022-08-18T11:39:55;5.47;;;3.20;;
17528;SDS011;8882;53.192;8.184;2022-08-18T11:42:27;7.95;;;3.83;;
17528;SDS011;8882;53.192;8.184;2022-08-18T11:45:00;8.15;;;3.50;;
17528;SDS011;8882;53.192;8.184;2022-08-18T11:53:36;8.77;;;3.50;;
17528;SDS011;8882;53.192;8.184;2022-08-18T11:58:50;4.78;;;3.28;;
17528;SDS011;8882;53.192;8.184;2022-08-18T12:03:56;5.57;;;3.38;;
17528;SDS011;8882;53.192;8.184;2022-08-18T12:06:30;8.73;;;3.15;;
17528;SDS011;8882;53.192;8.184;2022-08-18T12:08:58;5.85;;;2.70;;
17528;SDS011;8882;53.192;8.184;2022-08-18T12:11:35;8.68;;;4.07;;
17528;SDS011;8882;53.192;8.184;2022-08-18T12:14:17;7.43;;;3.35;;
17528;SDS011;8882;53.192;8.184;2022-08-18T12:16:45;6.75;;;3.20;;
17528;SDS011;8882;53.192;8.184;2022-08-18T12:19:12;6.85;;;3.63;;
17528;SDS011;8882;53.192;8.184;2022-08-18T12:21:42;4.68;;;3.22;;
17528;SDS011;8882;53.192;8.184;2022-08-18T12:26:52;6.72;;;3.53;;
17528;SDS011;8882;53.192;8.184;2022-08-18T12:29:19;7.18;;;3.67;;
17528;SDS011;8882;53.192;8.184;2022-08-18T12:31:47;7.07;;;3.45;;
17528;SDS011;8882;53.192;8.184;2022-08-18T12:34:18;5.70;;;3.10;;
17528;SDS011;8882;53.192;8.184;2022-08-18T12:36:50;7.05;;;3.22;;
17528;SDS011;8882;53.192;8.184;2022-08-18T12:39:18;7.78;;;3.47;;
17528;SDS011;8882;53.192;8.184;2022-08-18T12:41:43;8.50;;;3.45;;
17528;SDS011;8882;53.192;8.184;2022-08-18T12:44:09;7.07;;;3.95;;
17528;SDS011;8882;53.192;8.184;2022-08-18T12:46:35;6.68;;;3.10;;
17528;SDS011;8882;53.192;8.184;2022-08-18T12:49:02;5.93;;;3.65;;
17528;SDS011;8882;53.192;8.184;2022-08-18T12:51:28;6.93;;;3.85;;
17528;SDS011;8882;53.192;8.184;2022-08-18T12:53:54;6.22;;;3.10;;
17528;SDS011;8882;53.192;8.184;2022-08-18T12:56:21;7.05;;;3.45;;
17528;SDS011;8882;53.192;8.184;2022-08-18T12:58:53;7.22;;;3.42;;
17528;SDS011;8882;53.192;8.184;2022-08-18T13:01:20;4.88;;;3.30;;
17528;SDS011;8882;53.192;8.184;2022-08-18T13:03:46;5.97;;;3.28;;
17528;SDS011;8882;53.192;8.184;2022-08-18T13:06:12;8.27;;;2.90;;
17528;SDS011;8882;53.192;8.184;2022-08-18T13:08:39;6.68;;;3.05;;
17528;SDS011;8882;53.192;8.184;2022-08-18T13:11:05;7.15;;;3.58;;
17528;SDS011;8882;53.192;8.184;2022-08-18T13:13:35;5.43;;;2.53;;
17528;SDS011;8882;53.192;8.184;2022-08-18T13:16:05;3.85;;;2.80;;
17528;SDS011;8882;53.192;8.184;2022-08-18T13:18:32;3.80;;;2.70;;
17528;SDS011;8882;53.192;8.184;2022-08-18T13:20:59;4.70;;;2.60;;
17528;SDS011;8882;53.192;8.184;2022-08-18T13:23:26;6.60;;;3.25;;
17528;SDS011;8882;53.192;8.184;2022-08-18T13:25:52;5.28;;;3.42;;
17528;SDS011;8882;53.192;8.184;2022-08-18T13:28:18;6.22;;;3.05;;
17528;SDS011;8882;53.192;8.184;2022-08-18T13:30:44;4.63;;;2.90;;
17528;SDS011;8882;53.192;8.184;2022-08-18T13:33:10;3.75;;;2.60;;
17528;SDS011;8882;53.192;8.184;2022-08-18T13:35:36;4.25;;;3.10;;
17528;SDS011;8882;53.192;8.184;2022-08-18T13:38:01;5.05;;;3.28;;
17528;SDS011;8882;53.192;8.184;2022-08-18T13:40:29;4.35;;;2.92;;
17528;SDS011;8882;53.192;8.184;2022-08-18T13:42:55;4.65;;;2.83;;
17528;SDS011;8882;53.192;8.184;2022-08-18T13:45:20;3.78;;;2.95;;
17528;SDS011;8882;53.192;8.184;2022-08-18T13:47:47;5.75;;;4.00;;
17528;SDS011;8882;53.192;8.184;2022-08-18T13:50:13;4.20;;;3.00;;
17528;SDS011;8882;53.192;8.184;2022-08-18T13:52:40;5.70;;;3.20;;
17528;SDS011;8882;53.192;8.184;2022-08-18T13:55:11;3.47;;;3.03;;
17528;SDS011;8882;53.192;8.184;2022-08-18T13:57:40;4.65;;;2.78;;
17528;SDS011;8882;53.192;8.184;2022-08-18T14:00:12;10.63;;;3.25;;
17528;SDS011;8882;53.192;8.184;2022-08-18T14:02:44;3.83;;;2.88;;
17528;SDS011;8882;53.192;8.184;2022-08-18T14:05:12;5.63;;;2.88;;
17528;SDS011;8882;53.192;8.184;2022-08-18T14:07:40;7.43;;;3.35;;
17528;SDS011;8882;53.192;8.184;2022-08-18T14:10:06;47.10;;;31.23;;
17528;SDS011;8882;53.192;8.184;2022-08-18T14:12:33;7.38;;;5.20;;
17528;SDS011;8882;53.192;8.184;2022-08-18T14:15:01;8.02;;;4.47;;
17528;SDS011;8882;53.192;8.184;2022-08-18T14:17:31;6.53;;;3.72;;
17528;SDS011;8882;53.192;8.184;2022-08-18T14:19:57;7.00;;;3.40;;
17528;SDS011;8882;53.192;8.184;2022-08-18T14:22:41;6.93;;;3.33;;
17528;SDS011;8882;53.192;8.184;2022-08-18T14:25:25;7.78;;;3.70;;
17528;SDS011;8882;53.192;8.184;2022-08-18T14:28:10;8.68;;;3.38;;
17528;SDS011;8882;53.192;8.184;2022-08-18T14:30:36;7.40;;;3.50;;
17528;SDS011;8882;53.192;8.184;2022-08-18T14:33:04;4.03;;;2.83;;
17528;SDS011;8882;53.192;8.184;2022-08-18T14:35:34;12.38;;;3.65;;
17528;SDS011;8882;53.192;8.184;2022-08-18T14:38:00;8.48;;;3.28;;
17528;SDS011;8882;53.192;8.184;2022-08-18T14:40:27;7.22;;;3.83;;
17528;SDS011;8882;53.192;8.184;2022-08-18T14:42:53;7.15;;;3.28;;
17528;SDS011;8882;53.192;8.184;2022-08-18T14:45:19;7.35;;;3.05;;
17528;SDS011;8882;53.192;8.184;2022-08-18T14:47:45;4.43;;;2.80;;
17528;SDS011;8882;53.192;8.184;2022-08-18T14:50:10;6.85;;;3.22;;
17528;SDS011;8882;53.192;8.184;2022-08-18T14:52:37;7.35;;;3.03;;
17528;SDS011;8882;53.192;8.184;2022-08-18T14:55:04;6.18;;;2.97;;
17528;SDS011;8882;53.192;8.184;2022-08-18T14:57:31;7.85;;;3.22;;
17528;SDS011;8882;53.192;8.184;2022-08-18T14:59:56;5.00;;;2.85;;
17528;SDS011;8882;53.192;8.184;2022-08-18T15:02:21;6.60;;;3.30;;
17528;SDS011;8882;53.192;8.184;2022-08-18T15:04:47;5.75;;;2.75;;
17528;SDS011;8882;53.192;8.184;2022-08-18T15:07:13;3.78;;;2.45;;
17528;SDS011;8882;53.192;8.184;2022-08-18T15:09:38;7.03;;;2.90;;
17528;SDS011;8882;53.192;8.184;2022-08-18T15:12:04;6.65;;;2.88;;
17528;SDS011;8882;53.192;8.184;2022-08-18T15:14:30;3.97;;;2.45;;
17528;SDS011;8882;53.192;8.184;2022-08-18T15:16:57;6.80;;;2.70;;
17528;SDS011;8882;53.192;8.184;2022-08-18T15:19:23;2.83;;;2.35;;
17528;SDS011;8882;53.192;8.184;2022-08-18T15:21:49;5.10;;;2.78;;
17528;SDS011;8882;53.192;8.184;2022-08-18T15:24:33;6.47;;;2.65;;
17528;SDS011;8882;53.192;8.184;2022-08-18T15:27:21;4.03;;;2.40;;
17528;SDS011;8882;53.192;8.184;2022-08-18T15:29:47;5.95;;;2.65;;
17528;SDS011;8882;53.192;8.184;2022-08-18T15:32:13;5.30;;;2.42;;
17528;SDS011;8882;53.192;8.184;2022-08-18T15:34:39;3.78;;;2.35;;
17528;SDS011;8882;53.192;8.184;2022-08-18T15:37:07;4.22;;;2.65;;
17528;SDS011;8882;53.192;8.184;2022-08-18T15:39:33;5.82;;;2.45;;
17528;SDS011;8882;53.192;8.184;2022-08-18T15:41:59;6.60;;;2.58;;
17528;SDS011;8882;53.192;8.184;2022-08-18T15:44:24;4.13;;;2.22;;
17528;SDS011;8882;53.192;8.184;2022-08-18T15:46:50;4.10;;;2.17;;
17528;SDS011;8882;53.192;8.184;2022-08-18T15:49:17;3.42;;;2.17;;
17528;SDS011;8882;53.192;8.184;2022-08-18T15:51:43;6.30;;;2.60;;
17528;SDS011;8882;53.192;8.184;2022-08-18T15:54:09;5.05;;;2.47;;
17528;SDS011;8882;53.192;8.184;2022-08-18T15:56:35;4.32;;;2.50;;
17528;SDS011;8882;53.192;8.184;2022-08-18T15:59:01;6.47;;;2.03;;
17528;SDS011;8882;53.192;8.184;2022-08-18T16:01:28;4.00;;;2.10;;
17528;SDS011;8882;53.192;8.184;2022-08-18T16:03:54;3.55;;;2.10;;
17528;SDS011;8882;53.192;8.184;2022-08-18T16:06:21;7.05;;;2.53;;
17528;SDS011;8882;53.192;8.184;2022-08-18T16:08:49;3.92;;;1.95;;
17528;SDS011;8882;53.192;8.184;2022-08-18T16:11:15;3.17;;;2.10;;
17528;SDS011;8882;53.192;8.184;2022-08-18T16:13:43;2.92;;;1.90;;
17528;SDS011;8882;53.192;8.184;2022-08-18T16:16:10;5.30;;;1.95;;
17528;SDS011;8882;53.192;8.184;2022-08-18T16:18:37;1.75;;;1.63;;
17528;SDS011;8882;53.192;8.184;2022-08-18T16:21:05;2.22;;;1.98;;
17528;SDS011;8882;53.192;8.184;2022-08-18T16:23:36;2.03;;;1.42;;
17528;SDS011;8882;53.192;8.184;2022-08-18T16:26:03;2.35;;;1.67;;
17528;SDS011;8882;53.192;8.184;2022-08-18T16:28:30;2.45;;;1.50;;
17528;SDS011;8882;53.192;8.184;2022-08-18T16:30:55;2.15;;;1.60;;
17528;SDS011;8882;53.192;8.184;2022-08-18T16:33:21;3.45;;;1.73;;
17528;SDS011;8882;53.192;8.184;2022-08-18T16:35:47;2.83;;;1.90;;
17528;SDS011;8882;53.192;8.184;2022-08-18T16:38:15;2.22;;;1.50;;
17528;SDS011;8882;53.192;8.184;2022-08-18T16:40:41;1.60;;;1.50;;
17528;SDS011;8882;53.192;8.184;2022-08-18T16:43:06;2.50;;;1.50;;
17528;SDS011;8882;53.192;8.184;2022-08-18T16:45:33;2.50;;;1.73;;
17528;SDS011;8882;53.192;8.184;2022-08-18T16:48:01;2.25;;;1.35;;
17528;SDS011;8882;53.192;8.184;2022-08-18T16:50:26;2.65;;;1.20;;
17528;SDS011;8882;53.192;8.184;2022-08-18T16:52:52;1.30;;;1.20;;
17528;SDS011;8882;53.192;8.184;2022-08-18T16:55:18;1.60;;;1.50;;
17528;SDS011;8882;53.192;8.184;2022-08-18T16:57:44;3.22;;;1.58;;
17528;SDS011;8882;53.192;8.184;2022-08-18T17:00:29;1.58;;;1.48;;
17528;SDS011;8882;53.192;8.184;2022-08-18T17:03:14;2.25;;;1.45;;
17528;SDS011;8882;53.192;8.184;2022-08-18T17:06:03;2.47;;;1.88;;
17528;SDS011;8882;53.192;8.184;2022-08-18T17:08:30;2.20;;;1.73;;
17528;SDS011;8882;53.192;8.184;2022-08-18T17:10:58;8.75;;;1.70;;
17528;SDS011;8882;53.192;8.184;2022-08-18T17:13:28;2.13;;;1.52;;
17528;SDS011;8882;53.192;8.184;2022-08-18T17:15:54;3.42;;;1.67;;
17528;SDS011;8882;53.192;8.184;2022-08-18T17:18:19;2.20;;;1.45;;
17528;SDS011;8882;53.192;8.184;2022-08-18T17:20:46;1.67;;;1.40;;
17528;SDS011;8882;53.192;8.184;2022-08-18T17:23:11;2.33;;;1.30;;
17528;SDS011;8882;53.192;8.184;2022-08-18T17:25:37;3.90;;;1.67;;
17528;SDS011;8882;53.192;8.184;2022-08-18T17:28:03;3.88;;;1.52;;
17528;SDS011;8882;53.192;8.184;2022-08-18T17:30:30;2.25;;;1.30;;
17528;SDS011;8882;53.192;8.184;2022-08-18T17:33:00;2.58;;;1.52;;
17528;SDS011;8882;53.192;8.184;2022-08-18T17:35:32;2.33;;;1.60;;
17528;SDS011;8882;53.192;8.184;2022-08-18T17:38:02;3.63;;;1.52;;
17528;SDS011;8882;53.192;8.184;2022-08-18T17:43:10;2.75;;;1.70;;
17528;SDS011;8882;53.192;8.184;2022-08-18T17:45:39;4.32;;;1.50;;
17528;SDS011;8882;53.192;8.184;2022-08-18T17:48:07;2.97;;;1.70;;
17528;SDS011;8882;53.192;8.184;2022-08-18T17:50:47;3.83;;;1.77;;
17528;SDS011;8882;53.192;8.184;2022-08-18T17:53:37;3.35;;;1.20;;
17528;SDS011;8882;53.192;8.184;2022-08-18T17:56:08;4.55;;;1.60;;
17528;SDS011;8882;53.192;8.184;2022-08-18T18:01:28;2.08;;;1.42;;
17528;SDS011;8882;53.192;8.184;2022-08-18T18:03:55;1.95;;;1.42;;
17528;SDS011;8882;53.192;8.184;2022-08-18T18:09:10;1.63;;;1.40;;
17528;SDS011;8882;53.192;8.184;2022-08-18T18:11:53;2.80;;;1.50;;
17528;SDS011;8882;53.192;8.184;2022-08-18T18:17:13;1.40;;;1.30;;
17528;SDS011;8882;53.192;8.184;2022-08-18T18:19:48;2.92;;;1.50;;
17528;SDS011;8882;53.192;8.184;2022-08-18T18:22:19;2.38;;;1.60;;
17528;SDS011;8882;53.192;8.184;2022-08-18T18:24:58;2.67;;;1.88;;
17528;SDS011;8882;53.192;8.184;2022-08-18T18:29:59;2.67;;;1.77;;
17528;SDS011;8882;53.192;8.184;2022-08-18T18:32:28;2.63;;;1.90;;
17528;SDS011;8882;53.192;8.184;2022-08-18T18:35:15;1.73;;;1.58;;
17528;SDS011;8882;53.192;8.184;2022-08-18T18:40:27;2.07;;;1.70;;
17528;SDS011;8882;53.192;8.184;2022-08-18T18:42:53;4.63;;;1.70;;
17528;SDS011;8882;53.192;8.184;2022-08-18T18:45:25;1.75;;;1.50;;
17528;SDS011;8882;53.192;8.184;2022-08-18T18:48:08;2.17;;;1.70;;
17528;SDS011;8882;53.192;8.184;2022-08-18T18:50:42;2.23;;;1.43;;
17528;SDS011;8882;53.192;8.184;2022-08-18T18:55:56;3.30;;;2.10;;
17528;SDS011;8882;53.192;8.184;2022-08-18T19:01:40;1.67;;;1.57;;
17528;SDS011;8882;53.192;8.184;2022-08-18T19:04:23;4.60;;;1.70;;
17528;SDS011;8882;53.192;8.184;2022-08-18T19:09:41;2.97;;;1.80;;
17528;SDS011;8882;53.192;8.184;2022-08-18T19:12:17;1.50;;;1.40;;
17528;SDS011;8882;53.192;8.184;2022-08-18T19:14:51;3.47;;;2.13;;
17528;SDS011;8882;53.192;8.184;2022-08-18T19:20:15;2.80;;;2.00;;
17528;SDS011;8882;53.192;8.184;2022-08-18T19:25:12;2.47;;;1.63;;
17528;SDS011;8882;53.192;8.184;2022-08-18T19:27:46;2.60;;;1.87;;
17528;SDS011;8882;53.192;8.184;2022-08-18T19:30:17;2.67;;;1.60;;
17528;SDS011;8882;53.192;8.184;2022-08-18T19:32:46;2.33;;;1.70;;
17528;SDS011;8882;53.192;8.184;2022-08-18T19:35:15;3.23;;;1.50;;
17528;SDS011;8882;53.192;8.184;2022-08-18T19:40:28;2.23;;;1.80;;
17528;SDS011;8882;53.192;8.184;2022-08-18T19:43:19;3.30;;;1.90;;
17528;SDS011;8882;53.192;8.184;2022-08-18T19:46:52;3.33;;;1.60;;
17528;SDS011;8882;53.192;8.184;2022-08-18T19:48:57;3.50;;;1.80;;
17528;SDS011;8882;53.192;8.184;2022-08-18T19:51:32;5.10;;;1.83;;
17528;SDS011;8882;53.192;8.184;2022-08-18T19:54:10;2.20;;;1.70;;
17528;SDS011;8882;53.192;8.184;2022-08-18T19:57:02;2.27;;;1.90;;
17528;SDS011;8882;53.192;8.184;2022-08-18T20:05:45;3.70;;;1.90;;
17528;SDS011;8882;53.192;8.184;2022-08-18T20:08:36;4.90;;;2.03;;
17528;SDS011;8882;53.192;8.184;2022-08-18T20:13:55;3.83;;;2.10;;
17528;SDS011;8882;53.192;8.184;2022-08-18T20:19:01;5.23;;;2.53;;
17528;SDS011;8882;53.192;8.184;2022-08-18T20:21:47;4.40;;;2.67;;
17528;SDS011;8882;53.192;8.184;2022-08-18T20:27:25;4.90;;;2.53;;
17528;SDS011;8882;53.192;8.184;2022-08-18T20:33:03;3.70;;;2.17;;
17528;SDS011;8882;53.192;8.184;2022-08-18T20:35:37;5.90;;;3.10;;
17528;SDS011;8882;53.192;8.184;2022-08-18T20:51:55;3.43;;;2.30;;
17528;SDS011;8882;53.192;8.184;2022-08-18T20:57:08;3.43;;;2.60;;
17528;SDS011;8882;53.192;8.184;2022-08-18T20:59:36;4.20;;;2.77;;
